Caledonia, Illinois
Current Conditions -  °F | °C
As of 9:54 PM on Monday 20 Oct 2014 (Local Time) from KRFD Reporting Station
Broken Clouds Broken Clouds  
Wind Chill: 51°   Ceiling: 6000
Heat Index: 51°   Visibility: 10mi
Dew Point: 41°   Wind: 6mph
Humidity: 68%   Direction: 30°NNE
Pressure: 30.04"   Gusts: NA
Location:  42.37°N, 88.89°W
Report Text: KRFD 210254Z 03005KT 10SM BKN060 11/05 A3004 RMK AO2 SLP173 T01060050 51014
Loading
Personal Weather Stations






























Interactive Weather Map
Tropical Storm Tracking
New forecast layout! Learn more

10-Day Weather Forecast

Advertisements
Track Severe Weather on mobile